Time;durP1;ratioP1;P1;durP2;ratioP2;P2;SDS_P1;SDS_P2;PMS_P1;PMS_P2;Temp;Humidity;BMP_temperature;BMP_pressure;BME280_temperature;BME280_humidity;BME280_pressure;Samples;Min_cycle;Max_cycle;Signal;HPM_P1;HPM_P2
2023/11/20 00:01:33;;;;;;;19.67;17.88;;;;;;;5.36;100.00;96305.66;5024250;28;20060;-64
2023/11/20 00:04:02;;;;;;;15.63;14.02;;;;;;;5.32;100.00;96301.56;5021456;28;20662;-64
2023/11/20 00:06:28;;;;;;;15.23;13.82;;;;;;;5.28;100.00;96292.25;5028613;28;20143;-64
2023/11/20 00:08:53;;;;;;;14.05;12.70;;;;;;;5.25;100.00;96287.22;5034594;28;20017;-65
2023/11/20 00:11:19;;;;;;;16.73;15.23;;;;;;;5.24;100.00;96278.53;5030183;28;20033;-64
2023/11/20 00:13:45;;;;;;;11.90;10.82;;;;;;;5.19;100.00;96283.22;5025229;28;20033;-64
2023/11/20 00:16:11;;;;;;;12.25;11.15;;;;;;;5.16;100.00;96276.41;5025052;28;20030;-64
2023/11/20 00:18:37;;;;;;;15.05;10.50;;;;;;;5.12;100.00;96269.69;5022269;28;20072;-64
2023/11/20 00:21:03;;;;;;;12.05;10.98;;;;;;;5.07;100.00;96273.50;5022208;28;20089;-64
2023/11/20 00:23:28;;;;;;;11.07;9.98;;;;;;;5.00;100.00;96263.44;5023890;28;20048;-64
2023/11/20 00:25:54;;;;;;;12.20;10.90;;;;;;;4.97;100.00;96265.41;5032023;28;20612;-64
2023/11/20 00:28:19;;;;;;;16.90;12.95;;;;;;;5.03;100.00;96265.06;5029871;28;20486;-64
2023/11/20 00:30:44;;;;;;;16.65;15.05;;;;;;;5.03;100.00;96265.06;5028564;28;20021;-64
2023/11/20 00:33:10;;;;;;;14.23;12.35;;;;;;;5.01;100.00;96259.09;5019724;28;20026;-64
2023/11/20 00:35:35;;;;;;;12.07;11.02;;;;;;;4.95;100.00;96256.81;5027963;28;20029;-64
2023/11/20 00:38:00;;;;;;;12.57;11.43;;;;;;;4.92;100.00;96255.25;5024705;28;20593;-64
2023/11/20 00:40:26;;;;;;;14.07;12.60;;;;;;;4.90;100.00;96244.09;5016692;28;20022;-64
2023/11/20 00:42:52;;;;;;;16.08;13.85;;;;;;;4.87;100.00;96245.09;5018398;28;20078;-64
2023/11/20 00:45:20;;;;;;;14.93;13.63;;;;;;;4.84;100.00;96240.06;5026794;28;20026;-64
2023/11/20 00:47:46;;;;;;;16.77;14.65;;;;;;;4.87;100.00;96239.88;5021629;28;20123;-64
2023/11/20 00:50:11;;;;;;;19.83;15.50;;;;;;;4.83;100.00;96233.19;5027919;28;20017;-64
2023/11/20 00:52:36;;;;;;;22.17;18.25;;;;;;;4.83;100.00;96235.78;5019040;28;20026;-64
2023/11/20 00:55:10;;;;;;;20.73;18.73;;;;;;;4.83;100.00;96232.31;5033524;28;20646;-64
2023/11/20 00:57:39;;;;;;;17.60;12.65;;;;;;;4.79;100.00;96234.31;5031138;28;20125;-64
2023/11/20 01:00:08;;;;;;;17.80;11.77;;;;;;;4.76;100.00;96234.50;5029673;28;20029;-64
2023/11/20 01:02:34;;;;;;;17.05;14.00;;;;;;;4.71;100.00;96239.13;5021126;28;20022;-64
2023/11/20 01:05:00;;;;;;;21.30;19.10;;;;;;;4.69;100.00;96236.63;5033188;28;20026;-64
2023/11/20 01:07:26;;;;;;;17.90;14.98;;;;;;;4.66;100.00;96247.25;5025489;28;20031;-64
2023/11/20 01:09:52;;;;;;;19.63;17.90;;;;;;;4.65;100.00;96236.88;5023528;28;20077;-64
2023/11/20 01:12:17;;;;;;;15.73;13.48;;;;;;;4.62;100.00;96237.06;5028399;28;20114;-64
2023/11/20 01:14:44;;;;;;;16.85;15.40;;;;;;;4.61;100.00;96232.78;5016631;28;20097;-64
2023/11/20 01:17:10;;;;;;;19.05;17.17;;;;;;;4.57;100.00;96232.97;5021961;28;20107;-64
2023/11/20 01:19:35;;;;;;;18.20;16.40;;;;;;;4.55;100.00;96234.00;5020316;28;20073;-64
2023/11/20 01:22:00;;;;;;;16.55;15.18;;;;;;;4.55;100.00;96232.22;5020538;28;20521;-64
2023/11/20 01:24:26;;;;;;;17.42;15.77;;;;;;;4.57;100.00;96232.97;5029078;28;20021;-64
2023/11/20 01:26:53;;;;;;;17.42;15.73;;;;;;;4.57;100.00;96221.69;5027686;28;20021;-64
2023/11/20 01:29:19;;;;;;;17.70;15.95;;;;;;;4.54;100.00;96232.31;5023829;28;20036;-64
2023/11/20 01:31:44;;;;;;;16.08;13.68;;;;;;;4.53;100.00;96226.28;5022024;28;20026;-64
2023/11/20 01:34:11;;;;;;;19.88;17.98;;;;;;;4.53;100.00;96230.63;5031530;28;20029;-64
2023/11/20 01:36:37;;;;;;;20.55;18.35;;;;;;;4.49;100.00;96227.34;5033053;28;20072;-64
2023/11/20 01:39:03;;;;;;;21.92;16.67;;;;;;;4.46;100.00;96231.94;5023408;28;20072;-63
2023/11/20 01:41:29;;;;;;;14.27;12.73;;;;;;;4.45;100.00;96225.88;5019437;28;20029;-64
2023/11/20 01:43:54;;;;;;;14.52;13.32;;;;;;;4.41;100.00;96222.59;5017156;28;20030;-63
2023/11/20 01:46:20;;;;;;;13.32;12.30;;;;;;;4.39;100.00;96228.84;5029742;28;20113;-64
2023/11/20 01:48:45;;;;;;;12.00;10.95;;;;;;;4.39;100.00;96223.63;5016209;28;20060;-64
2023/11/20 01:51:12;;;;;;;10.90;10.10;;;;;;;4.39;100.00;96229.66;5017704;28;20417;-64
2023/11/20 01:53:39;;;;;;;10.10;9.35;;;;;;;4.34;100.00;96223.06;5033282;28;20023;-64
2023/11/20 01:56:07;;;;;;;9.52;8.82;;;;;;;4.34;100.00;96229.09;5018040;28;20025;-64
2023/11/20 01:58:34;;;;;;;9.77;8.98;;;;;;;4.34;100.00;96220.47;5026599;28;20018;-64
2023/11/20 02:01:00;;;;;;;9.25;8.48;;;;;;;4.35;100.00;96222.16;5016633;28;20113;-64
2023/11/20 02:03:25;;;;;;;8.93;8.25;;;;;;;4.30;100.00;96217.19;5019217;28;20045;-64
2023/11/20 02:05:51;;;;;;;9.13;8.40;;;;;;;4.26;100.00;96213.09;5026425;28;20049;-64
2023/11/20 02:08:16;;;;;;;9.10;8.40;;;;;;;4.25;100.00;96219.25;5018951;28;20032;-64
2023/11/20 02:10:41;;;;;;;8.63;8.00;;;;;;;4.25;100.00;96217.47;5021523;28;20529;-64
2023/11/20 02:13:07;;;;;;;8.88;8.07;;;;;;;4.21;100.00;96218.56;5023724;28;20057;-64
2023/11/20 02:15:33;;;;;;;8.48;7.70;;;;;;;4.20;100.00;96221.25;5030952;28;20064;-64
2023/11/20 02:17:58;;;;;;;8.65;8.05;;;;;;;4.19;100.00;96215.22;5025130;28;20115;-64
2023/11/20 02:20:24;;;;;;;8.50;7.85;;;;;;;4.19;100.00;96216.97;5003087;28;20684;-64
2023/11/20 02:22:50;;;;;;;8.98;8.27;;;;;;;4.16;100.00;96213.63;5023893;28;20029;-64
2023/11/20 02:25:17;;;;;;;8.32;7.70;;;;;;;4.16;100.00;96207.59;5026799;28;20037;-64
2023/11/20 02:27:52;;;;;;;7.82;7.22;;;;;;;4.11;100.00;96201.81;5019398;28;20029;-63
2023/11/20 02:30:18;;;;;;;7.72;7.03;;;;;;;4.07;100.00;96200.28;5029169;28;20508;-64
2023/11/20 02:32:43;;;;;;;7.55;6.90;;;;;;;4.01;100.00;96191.91;5023529;28;20084;-64
2023/11/20 02:35:18;;;;;;;6.20;5.68;;;;;;;3.99;100.00;96191.16;5021164;28;20128;-64
2023/11/20 02:37:44;;;;;;;6.60;6.10;;;;;;;4.03;100.00;96189.22;5015877;28;20017;-64
2023/11/20 02:40:10;;;;;;;8.18;6.25;;;;;;;4.03;100.00;96188.38;5026935;28;20022;-63
2023/11/20 02:42:36;;;;;;;6.10;5.60;;;;;;;4.04;100.00;96192.66;5018066;28;20030;-63
2023/11/20 02:45:01;;;;;;;7.65;6.47;;;;;;;4.01;100.00;96183.25;5016610;28;20038;-64
2023/11/20 02:47:27;;;;;;;7.90;7.20;;;;;;;3.99;100.00;96183.34;5018453;28;20855;-64
2023/11/20 02:49:52;;;;;;;7.90;7.20;;;;;;;3.99;100.00;96180.72;5021378;28;20030;-64
2023/11/20 02:52:18;;;;;;;8.10;7.30;;;;;;;3.92;100.00;96178.56;5028914;28;20065;-64
2023/11/20 02:54:46;;;;;;;10.43;9.52;;;;;;;3.95;100.00;96174.03;5013872;28;20022;-64
2023/11/20 02:57:12;;;;;;;8.05;7.40;;;;;;;3.92;100.00;96171.59;5025177;28;20029;-64
2023/11/20 02:59:37;;;;;;;8.07;7.38;;;;;;;3.95;100.00;96165.34;5025846;28;20089;-64
2023/11/20 03:02:03;;;;;;;17.70;9.38;;;;;;;3.99;100.00;96167.69;5028621;28;20056;-64
2023/11/20 03:04:28;;;;;;;10.85;9.90;;;;;;;4.03;100.00;96172.72;5019857;28;20427;-64
2023/11/20 03:06:54;;;;;;;8.45;7.07;;;;;;;4.25;100.00;96165.31;5022459;28;20120;-64
2023/11/20 03:09:19;;;;;;;12.38;11.25;;;;;;;4.28;100.00;96165.13;5025776;28;20028;-64
2023/11/20 03:11:45;;;;;;;13.98;12.48;;;;;;;4.25;100.00;96167.94;5027210;28;20721;-64
2023/11/20 03:14:12;;;;;;;13.93;12.70;;;;;;;4.14;100.00;96180.78;5025668;28;20024;-64
2023/11/20 03:16:38;;;;;;;11.80;10.77;;;;;;;4.11;100.00;96171.34;5017241;28;20597;-64
2023/11/20 03:19:05;;;;;;;15.20;13.88;;;;;;;4.27;100.00;96163.47;5024674;28;20149;-64
2023/11/20 03:21:33;;;;;;;19.65;17.95;;;;;;;4.36;100.00;96158.66;5027814;28;20478;-64
2023/11/20 03:23:59;;;;;;;18.25;16.50;;;;;;;4.37;100.00;96163.75;5021044;28;20163;-64
2023/11/20 03:26:25;;;;;;;15.65;14.40;;;;;;;4.29;100.00;96163.38;5026776;28;20072;-64
2023/11/20 03:28:51;;;;;;;17.75;16.17;;;;;;;4.25;100.00;96161.91;5029174;28;20104;-64
2023/11/20 03:31:17;;;;;;;16.92;15.63;;;;;;;4.26;100.00;96151.34;5030053;28;20099;-64
2023/11/20 03:33:42;;;;;;;21.23;19.20;;;;;;;4.26;100.00;96155.75;5030023;28;20045;-63
2023/11/20 03:36:08;;;;;;;19.95;18.55;;;;;;;4.23;100.00;96166.38;5032643;28;20029;-64
2023/11/20 03:38:34;;;;;;;18.13;16.58;;;;;;;4.21;100.00;96150.81;5034019;28;20032;-64
2023/11/20 03:40:59;;;;;;;14.93;13.82;;;;;;;4.20;100.00;96146.53;5031821;28;20025;-64
2023/11/20 03:43:27;;;;;;;15.63;14.23;;;;;;;4.22;100.00;96144.66;5031444;28;20167;-64
2023/11/20 03:45:52;;;;;;;14.65;13.55;;;;;;;4.20;100.00;96133.50;5028203;28;20036;-64
2023/11/20 03:48:18;;;;;;;15.18;13.85;;;;;;;4.15;100.00;96133.75;5015123;28;20479;-64
2023/11/20 03:50:44;;;;;;;18.00;16.45;;;;;;;4.12;100.00;96123.50;5033547;28;20075;-64
2023/11/20 03:53:10;;;;;;;15.93;14.63;;;;;;;4.11;100.00;96128.84;5020818;28;20022;-64
2023/11/20 03:55:36;;;;;;;16.20;14.85;;;;;;;4.12;100.00;96128.72;5028229;28;20022;-64
2023/11/20 03:58:02;;;;;;;17.83;16.33;;;;;;;4.06;100.00;96133.47;5025810;28;20030;-64
2023/11/20 04:00:29;;;;;;;14.05;12.77;;;;;;;4.02;100.00;96127.63;5035646;28;20227;-64
2023/11/20 04:02:55;;;;;;;13.93;12.57;;;;;;;3.99;100.00;96128.63;5024855;28;20029;-63
2023/11/20 04:05:20;;;;;;;15.38;13.40;;;;;;;4.04;100.00;96130.09;5030788;28;20529;-64
2023/11/20 04:07:46;;;;;;;21.52;14.30;;;;;;;3.96;100.00;96127.94;5026760;28;20088;-64
2023/11/20 04:10:11;;;;;;;15.20;13.38;;;;;;;3.98;100.00;96123.50;5032517;28;20021;-64
2023/11/20 04:12:37;;;;;;;11.48;10.38;;;;;;;4.00;100.00;96116.44;5033478;28;20053;-64
2023/11/20 04:15:02;;;;;;;11.23;10.23;;;;;;;4.05;100.00;96143.06;5024359;28;20089;-64
2023/11/20 04:17:28;;;;;;;14.55;13.30;;;;;;;4.12;100.00;96144.38;5036572;28;20030;-64
2023/11/20 04:19:53;;;;;;;13.73;12.30;;;;;;;4.19;100.00;96154.41;5018143;28;20033;-64
2023/11/20 04:22:19;;;;;;;13.57;12.18;;;;;;;4.25;100.00;96154.91;5031406;28;20124;-64
2023/11/20 04:24:44;;;;;;;13.52;12.32;;;;;;;4.21;100.00;96148.19;5032178;28;20667;-64
2023/11/20 04:27:09;;;;;;;12.57;11.32;;;;;;;4.16;100.00;96158.06;5027694;28;20029;-64
2023/11/20 04:29:35;;;;;;;11.50;10.40;;;;;;;4.12;100.00;96146.16;5022993;28;20031;-64
2023/11/20 04:32:01;;;;;;;10.77;9.77;;;;;;;4.11;100.00;96137.47;5027263;28;20037;-64
2023/11/20 04:34:26;;;;;;;20.00;18.13;;;;;;;4.14;100.00;96133.88;5018946;28;20017;-64
2023/11/20 04:36:52;;;;;;;17.27;15.73;;;;;;;4.15;100.00;96125.13;5037892;28;20067;-64
2023/11/20 04:39:17;;;;;;;11.30;10.20;;;;;;;4.16;100.00;96130.22;5032526;28;20025;-64
2023/11/20 04:41:43;;;;;;;9.20;8.40;;;;;;;4.22;100.00;96131.63;5027701;28;20034;-64
2023/11/20 04:44:08;;;;;;;8.85;8.15;;;;;;;4.21;100.00;96142.97;5020071;28;20032;-63
2023/11/20 04:46:34;;;;;;;5.75;5.22;;;;;;;4.33;100.00;96143.19;5017696;28;20021;-64
2023/11/20 04:49:00;;;;;;;5.85;5.35;;;;;;;4.38;100.00;96138.53;5027764;28;20025;-64
2023/11/20 04:51:25;;;;;;;8.13;7.32;;;;;;;4.33;100.00;96143.19;5020142;28;20486;-64
2023/11/20 04:53:51;;;;;;;7.95;7.18;;;;;;;4.25;100.00;96134.03;5024616;28;20026;-64
2023/11/20 04:56:16;;;;;;;13.90;12.60;;;;;;;4.24;100.00;96134.97;5019820;28;20041;-64
2023/11/20 04:58:46;;;;;;;13.05;12.05;;;;;;;4.30;100.00;96141.59;5027904;28;20037;-64
2023/11/20 05:01:13;;;;;;;10.82;9.73;;;;;;;4.35;100.00;96131.72;5028241;28;20040;-64
2023/11/20 05:03:38;;;;;;;7.85;7.05;;;;;;;4.41;100.00;96133.13;5021604;28;20071;-64
2023/11/20 05:06:08;;;;;;;6.80;6.30;;;;;;;4.44;100.00;96133.78;4998435;28;20026;-64
2023/11/20 05:08:33;;;;;;;6.75;6.07;;;;;;;4.43;100.00;96132.13;5031495;28;20025;-64
2023/11/20 05:10:59;;;;;;;15.82;14.23;;;;;;;4.43;100.00;96123.44;5030064;28;20101;-64
2023/11/20 05:13:25;;;;;;;12.02;10.65;;;;;;;4.40;100.00;96118.41;5034965;28;20056;-63
2023/11/20 05:15:51;;;;;;;9.48;8.55;;;;;;;4.40;100.00;96110.59;5033529;28;20033;-64
2023/11/20 05:18:16;;;;;;;8.15;7.40;;;;;;;4.41;100.00;96117.47;5031011;28;20103;-64
2023/11/20 05:20:42;;;;;;;9.05;8.25;;;;;;;4.48;100.00;96113.56;5030670;28;20960;-64
2023/11/20 05:23:08;;;;;;;18.98;16.98;;;;;;;4.50;100.00;96111.69;5017339;28;20025;-64
2023/11/20 05:25:35;;;;;;;21.77;17.60;;;;;;;4.54;100.00;96113.22;5028504;28;20523;-64
2023/11/20 05:28:00;;;;;;;21.70;18.45;;;;;;;4.56;100.00;96102.66;5025225;28;20033;-64
2023/11/20 05:30:26;;;;;;;20.98;18.63;;;;;;;4.53;100.00;96106.31;5029189;28;20021;-63
2023/11/20 05:32:51;;;;;;;24.23;18.83;;;;;;;4.47;100.00;96101.47;5028330;28;20064;-64
2023/11/20 05:35:16;;;;;;;21.20;15.77;;;;;;;4.40;100.00;96094.94;5029660;28;20029;-64
2023/11/20 05:37:42;;;;;;;18.85;14.82;;;;;;;4.35;100.00;96095.22;5031212;28;20100;-64
2023/11/20 05:40:09;;;;;;;21.85;12.55;;;;;;;4.31;100.00;96096.34;5035358;28;20803;-64
2023/11/20 05:42:34;;;;;;;20.63;12.07;;;;;;;4.27;100.00;96094.88;5028318;28;20017;-64
2023/11/20 05:45:00;;;;;;;16.35;11.15;;;;;;;4.23;100.00;96089.00;5021631;28;20116;-64
2023/11/20 05:47:25;;;;;;;13.45;12.02;;;;;;;4.15;100.00;96089.44;5029837;28;20108;-64
2023/11/20 05:49:51;;;;;;;20.70;15.50;;;;;;;4.09;100.00;96087.22;5027208;28;20395;-64
2023/11/20 05:52:17;;;;;;;22.13;15.38;;;;;;;4.03;100.00;96091.97;5023149;28;20670;-64
2023/11/20 05:54:43;;;;;;;17.27;14.13;;;;;;;4.00;100.00;96093.81;5015878;28;20022;-64
2023/11/20 05:57:10;;;;;;;28.35;22.13;;;;;;;4.01;100.00;96092.88;5029149;28;20021;-64
2023/11/20 05:59:35;;;;;;;27.73;20.08;;;;;;;3.97;100.00;96096.59;5024562;28;20029;-63
2023/11/20 06:02:01;;;;;;;23.50;17.90;;;;;;;3.90;100.00;96097.91;5029528;28;20018;-64
2023/11/20 06:04:26;;;;;;;19.55;13.05;;;;;;;3.89;100.00;96101.44;5026700;28;20096;-64
2023/11/20 06:06:54;;;;;;;20.80;16.40;;;;;;;3.86;100.00;96107.66;5024621;28;20055;-64
2023/11/20 06:09:20;;;;;;;21.00;18.27;;;;;;;3.85;100.00;96110.34;5026638;28;20036;-64
2023/11/20 06:11:49;;;;;;;15.73;12.70;;;;;;;3.83;100.00;96107.00;5015392;28;20112;-64
2023/11/20 06:14:17;;;;;;;20.02;12.73;;;;;;;3.72;100.00;96113.69;5024157;28;20549;-64
2023/11/20 06:16:42;;;;;;;15.57;13.88;;;;;;;3.70;100.00;96110.34;5028649;28;20116;-64
2023/11/20 06:19:08;;;;;;;16.83;15.07;;;;;;;3.70;100.00;96117.28;5029026;28;20084;-64
2023/11/20 06:21:33;;;;;;;16.08;13.90;;;;;;;3.68;100.00;96112.19;5020547;28;20094;-64
2023/11/20 06:24:00;;;;;;;14.43;13.07;;;;;;;3.62;100.00;96104.72;5021304;28;20026;-64
2023/11/20 06:26:26;;;;;;;15.90;14.50;;;;;;;3.56;100.00;96115.50;5028453;28;20029;-64
2023/11/20 06:28:51;;;;;;;17.38;15.65;;;;;;;3.57;100.00;96107.59;5032735;28;20106;-64
2023/11/20 06:31:17;;;;;;;20.42;18.52;;;;;;;3.59;100.00;96112.72;5024864;28;20018;-64
2023/11/20 06:33:43;;;;;;;20.63;17.42;;;;;;;3.58;100.00;96114.50;5022178;28;20482;-64
2023/11/20 06:36:10;;;;;;;20.42;18.55;;;;;;;3.56;100.00;96111.13;5028855;28;20041;-64
2023/11/20 06:38:35;;;;;;;24.35;21.92;;;;;;;3.59;100.00;96115.31;5029688;28;20544;-64
2023/11/20 06:41:02;;;;;;;17.48;15.70;;;;;;;3.58;100.00;96098.88;5023218;28;20030;-64
2023/11/20 06:43:28;;;;;;;17.60;15.73;;;;;;;3.51;100.00;96096.69;5035266;28;20561;-64
2023/11/20 06:45:53;;;;;;;19.60;17.65;;;;;;;3.42;100.00;96093.69;5027740;28;20042;-64
2023/11/20 06:48:19;;;;;;;27.20;24.48;;;;;;;3.49;100.00;96095.97;5014979;28;20037;-63
2023/11/20 06:50:44;;;;;;;40.78;36.38;;;;;;;3.50;100.00;96089.81;5022073;28;20475;-63
2023/11/20 06:53:10;;;;;;;35.17;31.90;;;;;;;3.52;100.00;96098.38;5017644;28;20025;-63
2023/11/20 06:55:35;;;;;;;34.70;31.23;;;;;;;3.51;100.00;96107.13;5023755;28;20475;-64
2023/11/20 06:58:01;;;;;;;30.77;27.35;;;;;;;3.48;100.00;96112.50;5017791;28;20495;-64
2023/11/20 07:00:26;;;;;;;41.50;33.10;;;;;;;3.47;100.00;96106.44;5020363;28;20534;-64
2023/11/20 07:02:52;;;;;;;35.00;28.63;;;;;;;3.49;100.00;96111.56;5000551;28;20111;-64
2023/11/20 07:05:18;;;;;;;29.85;24.52;;;;;;;3.49;100.00;96111.56;5023774;28;20402;-64
2023/11/20 07:07:52;;;;;;;26.83;23.60;;;;;;;3.52;100.00;96120.03;5013564;28;20501;-64
2023/11/20 07:10:23;;;;;;;28.70;25.52;;;;;;;3.55;100.00;96113.81;5014439;28;20354;-64
2023/11/20 07:12:54;;;;;;;45.70;41.53;;;;;;;3.60;100.00;96117.00;5025633;28;20033;-64
2023/11/20 07:15:21;;;;;;;57.67;52.33;;;;;;;3.68;100.00;96129.56;5016534;28;20025;-64
2023/11/20 07:17:47;;;;;;;57.38;52.28;;;;;;;3.75;100.00;96136.09;5024540;28;20120;-64
2023/11/20 07:20:13;;;;;;;71.70;64.95;;;;;;;3.81;100.00;96134.91;5029845;28;20025;-64
2023/11/20 07:22:38;;;;;;;33.30;29.88;;;;;;;3.90;100.00;96139.59;5031108;28;20026;-64
2023/11/20 07:25:04;;;;;;;25.75;23.33;;;;;;;3.89;100.00;96140.53;5031340;28;20076;-64
2023/11/20 07:27:31;;;;;;;23.30;20.90;;;;;;;3.90;100.00;96139.59;5030965;28;20117;-64
2023/11/20 07:29:56;;;;;;;30.08;26.95;;;;;;;3.96;100.00;96136.63;5024799;28;20018;-64
2023/11/20 07:32:22;;;;;;;57.15;51.10;;;;;;;4.04;100.00;96143.13;5027347;28;20024;-64
2023/11/20 07:34:47;;;;;;;52.53;47.25;;;;;;;4.07;100.00;96142.94;5022846;28;20129;-64
2023/11/20 07:37:13;;;;;;;30.17;27.48;;;;;;;4.10;100.00;96141.00;5026848;28;20026;-64
2023/11/20 07:39:38;;;;;;;27.58;24.95;;;;;;;4.22;100.00;96133.41;5025509;28;20025;-64
2023/11/20 07:42:04;;;;;;;21.85;19.95;;;;;;;4.31;100.00;96140.66;5020006;28;20021;-64
2023/11/20 07:44:29;;;;;;;20.90;19.02;;;;;;;4.36;100.00;96137.78;5029033;28;20032;-64
2023/11/20 07:46:54;;;;;;;21.92;20.05;;;;;;;4.40;100.00;96137.50;5022945;28;20080;-64
2023/11/20 07:49:20;;;;;;;21.33;19.80;;;;;;;4.43;100.00;96136.47;5026266;28;20380;-64
2023/11/20 07:51:46;;;;;;;21.35;19.40;;;;;;;4.39;100.00;96142.81;5018623;28;20052;-64
2023/11/20 07:54:11;;;;;;;20.33;18.65;;;;;;;4.37;100.00;96142.06;5020216;28;20025;-64
2023/11/20 07:56:37;;;;;;;21.63;20.00;;;;;;;4.40;100.00;96131.47;5031670;28;20544;-64
2023/11/20 07:59:03;;;;;;;25.60;23.33;;;;;;;4.42;100.00;96134.81;5026986;28;20038;-65
2023/11/20 08:01:29;;;;;;;37.45;34.15;;;;;;;4.48;100.00;96137.03;5030544;28;20049;-64
2023/11/20 08:03:54;;;;;;;22.38;20.17;;;;;;;4.53;100.00;96137.63;5024540;28;20485;-64
2023/11/20 08:06:20;;;;;;;19.15;17.35;;;;;;;4.59;100.00;96137.22;5043372;28;20029;-64
2023/11/20 08:08:46;;;;;;;19.08;17.48;;;;;;;4.67;100.00;96133.31;5027374;28;20026;-64
2023/11/20 08:11:12;;;;;;;18.45;16.75;;;;;;;4.67;100.00;96128.09;5034139;28;20026;-64
2023/11/20 08:13:37;;;;;;;17.63;16.02;;;;;;;4.71;100.00;96124.34;5023380;28;20081;-64
2023/11/20 08:16:03;;;;;;;18.63;16.67;;;;;;;4.84;100.00;96119.19;5016540;28;20026;-64
2023/11/20 08:18:30;;;;;;;17.13;15.65;;;;;;;5.00;100.00;96119.91;5028071;28;20095;-64
2023/11/20 08:20:55;;;;;;;19.33;17.73;;;;;;;5.22;100.00;96120.34;5018984;28;20022;-64
2023/11/20 08:23:21;;;;;;;19.92;18.13;;;;;;;5.45;100.00;96108.41;5023430;28;20067;-65
2023/11/20 08:25:47;;;;;;;23.42;21.42;;;;;;;5.65;100.00;96109.72;5030331;28;20029;-65
2023/11/20 08:28:12;;;;;;;26.00;23.90;;;;;;;5.85;100.00;96112.75;5026337;28;20025;-65
2023/11/20 08:30:37;;;;;;;28.88;26.02;;;;;;;5.98;100.00;96110.19;5022635;28;20013;-64
2023/11/20 08:33:03;;;;;;;33.75;30.90;;;;;;;6.04;100.00;96095.88;5018936;28;20033;-64
2023/11/20 08:35:28;;;;;;;28.85;26.05;;;;;;;6.07;100.00;96100.91;5029721;28;20032;-65
2023/11/20 08:37:54;;;;;;;24.50;22.45;;;;;;;6.20;100.00;96098.31;5035939;28;20498;-65
2023/11/20 08:40:20;;;;;;;22.50;20.80;;;;;;;6.21;100.00;96098.19;5033519;28;20052;-65
2023/11/20 08:42:46;;;;;;;21.95;19.92;;;;;;;6.27;100.00;96094.31;5026111;28;20487;-64
2023/11/20 08:45:12;;;;;;;18.67;16.80;;;;;;;6.30;100.00;96092.34;5026191;28;20049;-65
2023/11/20 08:47:39;;;;;;;15.80;14.50;;;;;;;6.33;100.00;96085.22;5027456;28;20081;-65
2023/11/20 08:50:06;;;;;;;15.23;13.90;;;;;;;6.35;100.00;96097.22;5028647;28;20109;-65
2023/11/20 08:52:31;;;;;;;15.30;13.55;;;;;;;6.40;100.00;96094.31;5033041;28;20045;-65
2023/11/20 08:54:57;;;;;;;17.42;15.85;;;;;;;6.50;100.00;96094.50;5031914;28;20034;-65
2023/11/20 08:57:22;;;;;;;16.17;14.60;;;;;;;6.61;100.00;96086.72;5013083;28;20025;-65
2023/11/20 08:59:49;;;;;;;14.40;13.10;;;;;;;6.76;100.00;96090.06;5016962;28;20030;-65
2023/11/20 09:02:14;;;;;;;15.70;13.75;;;;;;;6.84;100.00;96082.50;5017351;28;20022;-64
2023/11/20 09:04:40;;;;;;;17.90;15.63;;;;;;;6.95;100.00;96086.13;5027644;28;20020;-65
2023/11/20 09:07:05;;;;;;;39.25;26.60;;;;;;;7.01;100.00;96086.53;5019444;28;20102;-65
2023/11/20 09:09:31;;;;;;;67.22;35.90;;;;;;;7.09;100.00;96082.53;5022418;28;20098;-64
2023/11/20 09:11:56;;;;;;;66.53;36.88;;;;;;;7.15;100.00;96075.06;5021257;28;20036;-65
2023/11/20 09:14:22;;;;;;;34.72;24.17;;;;;;;7.25;100.00;96071.78;5021187;28;20196;-65
2023/11/20 09:16:47;;;;;;;22.67;17.23;;;;;;;7.35;100.00;96069.34;5027264;28;20037;-65
2023/11/20 09:19:12;;;;;;;124.25;60.72;;;;;;;7.42;100.00;96073.16;5018977;28;20107;-65
2023/11/20 09:21:38;;;;;;;11.40;10.18;;;;;;;7.50;100.00;96065.56;5023615;28;20652;-64
2023/11/20 09:24:04;;;;;;;9.27;8.00;;;;;;;7.66;100.00;96067.03;4994596;28;20026;-65
2023/11/20 09:26:29;;;;;;;7.35;6.70;;;;;;;7.71;100.00;96065.75;5019740;28;20512;-65
2023/11/20 09:28:55;;;;;;;12.00;10.60;;;;;;;7.80;100.00;96055.53;5020081;28;20017;-64
2023/11/20 09:31:20;;;;;;;14.85;13.40;;;;;;;7.83;100.00;96050.03;5021080;28;20040;-65
2023/11/20 09:33:48;;;;;;;15.88;14.27;;;;;;;7.89;100.00;96049.59;5024847;28;20029;-64
2023/11/20 09:36:14;;;;;;;17.67;16.15;;;;;;;7.94;100.00;96047.47;5018966;28;20072;-65
2023/11/20 09:38:39;;;;;;;15.82;14.05;;;;;;;8.03;100.00;96056.41;5007074;28;20022;-65
2023/11/20 09:41:04;;;;;;;15.10;13.68;;;;;;;8.22;100.00;96058.44;5015887;28;20038;-64
2023/11/20 09:43:31;;;;;;;42.80;29.15;;;;;;;8.38;100.00;96065.13;5017635;28;20056;-64
2023/11/20 09:45:59;;;;;;;92.40;58.00;;;;;;;8.48;100.00;96075.75;5029906;28;20128;-65
2023/11/20 09:48:32;;;;;;;60.45;45.35;;;;;;;8.54;100.00;96070.06;5026091;28;20075;-64
2023/11/20 09:50:58;;;;;;;49.40;33.28;;;;;;;8.61;100.00;96081.72;5017903;28;20029;-64
2023/11/20 09:53:31;;;;;;;18.98;14.88;;;;;;;8.60;100.00;96082.69;5015738;28;20030;-64
2023/11/20 09:55:57;;;;;;;13.27;9.75;;;;;;;8.65;100.00;96088.44;5020569;28;20478;-64
2023/11/20 09:58:23;;;;;;;5.75;4.82;;;;;;;8.70;100.00;96093.31;5030183;28;20025;-64
2023/11/20 10:00:56;;;;;;;3.85;3.55;;;;;;;8.71;100.00;96097.59;5021304;28;20037;-64
2023/11/20 10:03:22;;;;;;;5.55;3.92;;;;;;;8.71;100.00;96103.69;5014270;28;20053;-65
2023/11/20 10:05:50;;;;;;;5.03;4.32;;;;;;;8.68;100.00;96119.69;5014879;28;20028;-64
2023/11/20 10:08:17;;;;;;;5.88;4.85;;;;;;;8.72;100.00;96121.13;5022234;28;20029;-65
2023/11/20 10:10:43;;;;;;;12.65;10.95;;;;;;;8.78;100.00;96129.47;5019853;28;20025;-65
2023/11/20 10:13:11;;;;;;;23.92;19.23;;;;;;;8.91;100.00;96139.84;5017137;28;20087;-65
2023/11/20 10:15:37;;;;;;;11.85;8.30;;;;;;;9.04;100.00;96145.81;5016457;28;20065;-65
2023/11/20 10:18:03;;;;;;;7.82;5.60;;;;;;;9.11;100.00;96154.84;5018042;28;20638;-65
2023/11/20 10:20:45;;;;;;;6.03;5.43;;;;;;;9.17;100.00;96159.66;5025709;28;20030;-65
2023/11/20 10:23:13;;;;;;;5.10;4.70;;;;;;;9.35;100.00;96180.13;5016777;28;20053;-64
2023/11/20 10:25:42;;;;;;;13.27;10.70;;;;;;;9.50;100.00;96191.22;5025678;28;20055;-65
2023/11/20 10:28:08;;;;;;;23.27;20.15;;;;;;;9.53;100.00;96196.25;5018229;28;20076;-65
2023/11/20 10:30:33;;;;;;;9.82;8.23;;;;;;;9.60;100.00;96197.41;5021271;28;20022;-64
2023/11/20 10:32:59;;;;;;;6.85;5.93;;;;;;;9.72;100.00;96194.75;5023142;28;20049;-65
2023/11/20 10:35:28;;;;;;;7.90;5.15;;;;;;;9.85;100.00;96210.38;5004035;28;20108;-65
2023/11/20 10:38:01;;;;;;;5.53;4.70;;;;;;;9.98;100.00;96210.22;5021636;28;20064;-65
2023/11/20 10:40:26;;;;;;;5.25;3.90;;;;;;;10.12;100.00;96219.59;5025839;28;20483;-65
2023/11/20 10:42:52;;;;;;;8.82;5.65;;;;;;;10.23;100.00;96235.31;5029392;28;20092;-64
2023/11/20 10:45:19;;;;;;;10.32;9.43;;;;;;;10.43;100.00;96238.13;5028469;28;20116;-65
2023/11/20 10:47:46;;;;;;;11.63;10.82;;;;;;;10.60;100.00;96242.84;5029840;28;20036;-65
2023/11/20 10:50:13;;;;;;;10.73;9.82;;;;;;;10.63;100.00;96243.53;5022900;28;20021;-65
2023/11/20 10:52:44;;;;;;;9.48;8.60;;;;;;;10.57;100.00;96245.72;5023739;28;20064;-65
2023/11/20 10:55:11;;;;;;;5.85;5.35;;;;;;;10.50;100.00;96249.00;5015495;28;20108;-65
2023/11/20 10:57:38;;;;;;;4.60;4.20;;;;;;;10.42;100.00;96239.09;5014111;28;20026;-65
2023/11/20 11:00:10;;;;;;;6.93;6.32;;;;;;;10.43;100.00;96239.00;5018133;28;20157;-65
2023/11/20 11:02:42;;;;;;;10.13;9.23;;;;;;;10.44;100.00;96230.13;5026989;28;20022;-65
2023/11/20 11:05:10;;;;;;;81.30;53.53;;;;;;;10.50;100.00;96223.53;5025279;28;20026;-65
2023/11/20 11:07:40;;;;;;;45.97;21.35;;;;;;;10.61;100.00;96222.63;5024855;28;20029;-65
2023/11/20 11:10:10;;;;;;;9.05;7.65;;;;;;;10.68;100.00;96226.41;5020933;28;20026;-65
2023/11/20 11:12:42;;;;;;;7.55;6.15;;;;;;;10.74;100.00;96211.88;5029195;28;20108;-65
2023/11/20 11:15:13;;;;;;;9.75;7.78;;;;;;;10.78;100.00;96199.28;5024755;28;20102;-65
2023/11/20 11:17:47;;;;;;;6.60;5.13;;;;;;;10.83;100.00;96195.28;5036779;28;20065;-65